首页
METAR-TAF:

METAR-TAF

机场 :

新加坡樟宜机场

新加坡, 新加坡

纬度: 01-22N, 经度: 103-59E, 海拔: 5米

当前天气观测

该预报发布于15分钟前的04:00 UTC
风速12节,风向
温度 25°C
湿度 89%
气压 1012 hPa
能见度10公里或以上
少量云层高于1500英尺
散云层高于6000英尺
多云层高于16000英尺
小雨,

METAR: WSSS 220400Z 19012KT 9999 -RA FEW015 SCT060 BKN160 25/23 Q1012 NOSIG

时间: 12:15 (04:15 UTC)

预报

该预报发布于5小时和15分钟前的23:00 UTC
预报有效从22日的 00点(UTC)到 23日的 06点(UTC)
风速12节,风向
能见度10公里或以上
少量云层高于1500英尺
散云层高于2000英尺

TAF: WSSS 212300Z 2200/2306 17012KT 9999 FEW015 SCT020

超过4000个机场的气象观测和天气预报(METAR&TAF报告)。

可查询的气象台以黄色和红色小点在地图上表示。

将鼠标移到小点上方,可查看气象台名称。

然后点击查看天气观测和预报。

如需切换地图:点击带黑十字的绿色按钮放大地图;点击带横线的绿色按钮缩小地图;或者点击绿色箭头查看邻近地区的地图。


METAR-TAF: